createdAt,value
2023-01-28T00:02:00.814Z,2.45
2023-01-28T00:04:31.147Z,2.55
2023-01-28T00:07:06.953Z,2.30
2023-01-28T00:09:37.155Z,2.13
2023-01-28T00:12:08.153Z,2.60
2023-01-28T00:14:38.981Z,2.42
2023-01-28T00:17:09.741Z,2.25
2023-01-28T00:19:40.503Z,2.00
2023-01-28T00:22:10.743Z,2.13
2023-01-28T00:24:41.051Z,2.45
2023-01-28T00:27:11.320Z,2.90
2023-01-28T00:29:41.739Z,2.60
2023-01-28T00:32:12.621Z,2.17
2023-01-28T00:34:43.255Z,2.60
2023-01-28T00:37:13.534Z,2.28
2023-01-28T00:39:43.857Z,2.35
2023-01-28T00:42:14.489Z,2.42
2023-01-28T00:44:44.744Z,2.55
2023-01-28T00:47:15.385Z,2.10
2023-01-28T00:49:45.663Z,2.20
2023-01-28T00:52:16.716Z,2.80
2023-01-28T00:54:47.674Z,3.00
2023-01-28T00:57:18.749Z,1.90
2023-01-28T00:59:49.658Z,2.20
2023-01-28T01:02:20.796Z,2.40
2023-01-28T01:05:00.604Z,2.35
2023-01-28T01:07:59.169Z,2.38
2023-01-28T01:10:30.268Z,2.13
2023-01-28T01:13:01.270Z,2.20
2023-01-28T01:15:31.612Z,2.28
2023-01-28T01:18:01.949Z,2.38
2023-01-28T01:20:35.511Z,2.42
2023-01-28T01:23:06.210Z,1.80
2023-01-28T01:25:37.278Z,1.95
2023-01-28T01:28:07.609Z,2.20
2023-01-28T01:30:38.376Z,2.60
2023-01-28T01:33:09.287Z,1.80
2023-01-28T01:35:39.602Z,1.63
2023-01-28T01:38:10.891Z,2.17
2023-01-28T01:40:41.147Z,1.73
2023-01-28T01:43:23.768Z,1.95
2023-01-28T01:46:00.563Z,2.03
2023-01-28T01:48:37.800Z,2.30
2023-01-28T01:51:15.664Z,1.90
2023-01-28T01:53:49.444Z,2.22
2023-01-28T01:56:24.015Z,2.28
2023-01-28T01:58:57.844Z,1.88
2023-01-28T02:01:33.878Z,2.13
2023-01-28T02:04:11.383Z,2.03
2023-01-28T02:06:43.241Z,2.17
2023-01-28T02:09:37.899Z,1.73
2023-01-28T02:12:19.027Z,2.03
2023-01-28T02:14:56.927Z,2.10
2023-01-28T02:17:30.499Z,2.25
2023-01-28T02:20:14.355Z,2.88
2023-01-28T02:23:06.588Z,1.98
2023-01-28T02:25:48.867Z,2.17
2023-01-28T02:28:36.937Z,1.80
2023-01-28T02:31:20.349Z,1.98
2023-01-28T02:34:12.479Z,1.77
2023-01-28T02:36:56.544Z,1.80
2023-01-28T02:39:47.718Z,2.30
2023-01-28T02:42:24.198Z,1.83
2023-01-28T02:44:54.566Z,1.60
2023-01-28T02:47:43.206Z,1.17
2023-01-28T02:50:19.716Z,1.55
2023-01-28T02:53:33.372Z,1.00
2023-01-28T02:56:31.130Z,1.02
2023-01-28T02:59:38.697Z,1.23
2023-01-28T03:02:30.499Z,2.15
2023-01-28T03:05:13.896Z,1.23
2023-01-28T03:07:45.139Z,1.10
2023-01-28T03:10:20.329Z,1.25
2023-01-28T03:13:14.343Z,1.00
2023-01-28T03:16:07.651Z,1.08
2023-01-28T03:19:23.051Z,0.85
2023-01-28T03:22:12.822Z,1.30
2023-01-28T03:25:09.105Z,1.00
2023-01-28T03:28:11.210Z,2.13
2023-01-28T03:31:14.537Z,1.25
2023-01-28T03:34:03.611Z,1.15
2023-01-28T03:36:54.192Z,0.90
2023-01-28T03:39:31.644Z,1.27
2023-01-28T03:42:16.424Z,1.30
2023-01-28T03:44:56.666Z,0.80
2023-01-28T03:47:30.527Z,1.00
2023-01-28T03:50:02.069Z,1.08
2023-01-28T03:52:34.676Z,1.05
2023-01-28T03:55:15.113Z,1.20
2023-01-28T03:57:47.107Z,1.40
2023-01-28T04:00:20.296Z,1.00
2023-01-28T04:02:50.963Z,0.95
2023-01-28T04:05:22.335Z,1.00
2023-01-28T04:07:54.312Z,0.95
2023-01-28T04:10:27.668Z,0.90
2023-01-28T04:13:01.496Z,1.20
2023-01-28T04:15:33.152Z,1.02
2023-01-28T04:18:03.500Z,0.93
2023-01-28T04:20:34.216Z,0.98
2023-01-28T04:23:04.794Z,1.20
2023-01-28T04:25:37.117Z,0.93
2023-01-28T04:28:07.945Z,1.27
2023-01-28T04:30:38.589Z,1.23
2023-01-28T04:33:09.319Z,0.90
2023-01-28T04:35:40.683Z,0.70
2023-01-28T04:38:11.386Z,1.30
2023-01-28T04:40:42.242Z,0.77
2023-01-28T04:43:12.601Z,0.93
2023-01-28T04:45:43.036Z,1.15
2023-01-28T04:48:13.391Z,0.90
2023-01-28T04:50:44.356Z,0.70
2023-01-28T04:53:15.401Z,0.80
2023-01-28T04:55:47.420Z,1.05
2023-01-28T04:58:17.729Z,1.02
2023-01-28T05:00:48.511Z,0.70
2023-01-28T05:03:18.853Z,0.68
2023-01-28T05:05:49.372Z,0.63
2023-01-28T05:08:29.191Z,0.60
2023-01-28T05:10:59.658Z,0.63
2023-01-28T05:13:29.904Z,0.70
2023-01-28T05:16:00.411Z,0.63
2023-01-28T05:18:30.611Z,0.60
2023-01-28T05:21:01.580Z,0.50
2023-01-28T05:23:32.264Z,0.50
2023-01-28T05:26:03.330Z,0.52
2023-01-28T05:28:34.185Z,0.80
2023-01-28T05:31:11.477Z,0.60
2023-01-28T05:33:42.889Z,0.70
2023-01-28T05:36:13.498Z,0.77
2023-01-28T05:38:47.102Z,0.75
2023-01-28T05:41:17.580Z,0.73
2023-01-28T05:43:47.827Z,0.90
2023-01-28T05:46:20.593Z,0.70
2023-01-28T05:48:52.645Z,0.70
2023-01-28T05:51:23.115Z,0.52
2023-01-28T05:54:25.217Z,0.70
2023-01-28T05:56:55.714Z,0.60
2023-01-28T05:59:26.673Z,1.05
2023-01-28T06:01:58.366Z,0.80
2023-01-28T06:04:29.067Z,0.90
2023-01-28T06:06:59.643Z,0.45
2023-01-28T06:09:30.073Z,0.60
2023-01-28T06:12:00.479Z,0.70
2023-01-28T06:14:31.128Z,0.60
2023-01-28T06:17:01.920Z,0.70
2023-01-28T06:19:32.141Z,0.85
2023-01-28T06:22:02.529Z,0.60
2023-01-28T06:24:32.883Z,0.70
2023-01-28T06:27:04.214Z,0.75
2023-01-28T06:29:34.883Z,0.60
2023-01-28T06:32:07.119Z,0.80
2023-01-28T06:34:39.101Z,0.57
2023-01-28T06:37:09.772Z,0.90
2023-01-28T06:39:40.143Z,0.60
2023-01-28T06:42:10.717Z,1.27
2023-01-28T06:44:41.270Z,1.02
2023-01-28T06:47:12.714Z,0.70
2023-01-28T06:49:45.156Z,0.60
2023-01-28T06:52:16.016Z,0.57
2023-01-28T06:54:46.369Z,1.33
2023-01-28T06:57:16.993Z,1.02
2023-01-28T06:59:48.195Z,1.10
2023-01-28T07:02:18.673Z,1.13
2023-01-28T07:04:48.980Z,1.00
2023-01-28T07:07:19.991Z,1.23
2023-01-28T07:09:50.694Z,1.38
2023-01-28T07:12:21.763Z,0.90
2023-01-28T07:14:52.438Z,1.35
2023-01-28T07:17:22.992Z,1.70
2023-01-28T07:19:53.276Z,1.02
2023-01-28T07:22:23.621Z,0.82
2023-01-28T07:24:53.956Z,1.23
2023-01-28T07:27:26.320Z,1.30
2023-01-28T07:29:57.086Z,1.67
2023-01-28T07:32:29.479Z,1.00
2023-01-28T07:35:00.922Z,0.90
2023-01-28T07:37:32.030Z,1.02
2023-01-28T07:40:02.362Z,1.42
2023-01-28T07:42:33.271Z,1.00
2023-01-28T07:45:04.012Z,1.50
2023-01-28T07:47:35.193Z,1.92
2023-01-28T07:50:06.105Z,2.08
2023-01-28T07:52:47.662Z,2.97
2023-01-28T07:55:18.514Z,2.55
2023-01-28T07:57:52.816Z,2.10
2023-01-28T08:00:25.150Z,1.83
2023-01-28T08:03:00.600Z,1.73
2023-01-28T08:05:44.906Z,1.67
2023-01-28T08:08:34.221Z,1.73
2023-01-28T08:11:14.881Z,2.40
2023-01-28T08:13:45.446Z,2.10
2023-01-28T08:16:15.967Z,2.60
2023-01-28T08:18:46.492Z,2.08
2023-01-28T08:21:17.281Z,1.40
2023-01-28T08:23:47.612Z,1.52
2023-01-28T08:26:17.933Z,1.92
2023-01-28T08:28:49.957Z,1.48
2023-01-28T08:31:20.987Z,2.00
2023-01-28T08:33:53.869Z,2.70
2023-01-28T08:36:24.838Z,2.00
2023-01-28T08:38:57.905Z,2.47
2023-01-28T08:41:28.188Z,2.20
2023-01-28T08:43:58.461Z,2.50
2023-01-28T08:46:29.127Z,2.75
2023-01-28T08:48:59.549Z,2.47
2023-01-28T08:51:29.806Z,3.20
2023-01-28T08:54:00.053Z,3.05
2023-01-28T08:56:35.482Z,3.10
2023-01-28T08:59:05.834Z,1.85
2023-01-28T09:01:36.595Z,1.20
2023-01-28T09:04:10.543Z,1.40
2023-01-28T09:06:42.839Z,1.35
2023-01-28T09:09:15.903Z,1.40
2023-01-28T09:11:46.217Z,1.58
2023-01-28T09:14:16.686Z,1.55
2023-01-28T09:16:47.240Z,1.17
2023-01-28T09:19:17.686Z,1.48
2023-01-28T09:21:48.583Z,1.80
2023-01-28T09:24:19.884Z,1.60
2023-01-28T09:26:52.750Z,1.73
2023-01-28T09:29:23.035Z,1.70
2023-01-28T09:31:54.741Z,1.63
2023-01-28T09:34:25.419Z,1.52
2023-01-28T09:36:56.477Z,1.65
2023-01-28T09:39:28.084Z,1.40
2023-01-28T09:42:07.648Z,1.52
2023-01-28T09:45:17.411Z,1.75
2023-01-28T09:48:04.840Z,1.48
2023-01-28T09:50:44.477Z,1.42
2023-01-28T09:53:28.660Z,1.48
2023-01-28T09:56:04.936Z,2.00
2023-01-28T09:58:35.854Z,1.50
2023-01-28T10:01:47.073Z,1.75
2023-01-28T10:04:38.540Z,1.63
2023-01-28T10:07:09.186Z,1.45
2023-01-28T10:09:54.261Z,1.75
2023-01-28T10:13:06.592Z,2.78
2023-01-28T10:16:14.156Z,1.90
2023-01-28T10:18:57.768Z,1.77
2023-01-28T10:21:57.078Z,1.60
2023-01-28T10:24:38.429Z,2.78
2023-01-28T10:27:26.858Z,1.85
2023-01-28T10:29:59.863Z,2.08
2023-01-28T10:32:39.210Z,1.92
2023-01-28T10:35:11.865Z,2.03
2023-01-28T10:37:43.859Z,2.33
2023-01-28T10:40:21.510Z,2.67
2023-01-28T10:42:54.365Z,2.00
2023-01-28T10:45:35.196Z,2.10
2023-01-28T10:48:27.847Z,2.50
2023-01-28T10:51:07.175Z,2.17
2023-01-28T10:53:43.336Z,2.53
2023-01-28T10:56:40.682Z,2.75
2023-01-28T10:59:24.372Z,2.20
2023-01-28T11:02:00.179Z,2.67
2023-01-28T11:04:33.621Z,2.53
2023-01-28T11:07:07.106Z,2.22
2023-01-28T11:09:47.415Z,2.00
2023-01-28T11:12:25.854Z,2.75
2023-01-28T11:15:02.697Z,2.00
2023-01-28T11:17:40.825Z,2.10
2023-01-28T11:20:24.823Z,2.20
2023-01-28T11:22:56.074Z,1.88
2023-01-28T11:25:29.299Z,2.55
2023-01-28T11:28:01.588Z,2.20
2023-01-28T11:30:42.516Z,2.33
2023-01-28T11:33:26.455Z,3.22
2023-01-28T11:36:11.914Z,3.55
2023-01-28T11:38:57.053Z,2.95
2023-01-28T11:41:40.598Z,3.38
2023-01-28T11:44:27.340Z,3.90
2023-01-28T11:50:02.106Z,4.80
2023-01-28T11:53:06.475Z,5.68
2023-01-28T11:55:47.533Z,6.20
2023-01-28T11:58:21.403Z,5.47
2023-01-28T12:01:17.841Z,6.20
2023-01-28T12:04:14.173Z,7.93
2023-01-28T12:07:06.703Z,7.22
2023-01-28T12:09:52.240Z,7.88
2023-01-28T12:12:55.432Z,7.40
2023-01-28T12:15:49.551Z,8.68
2023-01-28T12:18:34.855Z,9.75
2023-01-28T12:21:13.192Z,8.65
2023-01-28T12:23:56.244Z,8.45
2023-01-28T12:26:51.990Z,8.55
2023-01-28T12:29:32.895Z,8.80
2023-01-28T12:32:41.268Z,8.75
2023-01-28T12:35:23.852Z,8.57
2023-01-28T12:38:08.547Z,8.65
2023-01-28T12:41:00.232Z,8.80
2023-01-28T12:43:47.798Z,8.85
2023-01-28T12:46:28.890Z,9.02
2023-01-28T12:49:17.317Z,9.70
2023-01-28T12:51:56.379Z,9.52
2023-01-28T12:54:55.151Z,10.57
2023-01-28T12:57:30.355Z,9.98
2023-01-28T13:00:22.262Z,9.87
2023-01-28T13:03:10.980Z,9.43
2023-01-28T13:05:52.873Z,8.80
2023-01-28T13:08:30.775Z,8.52
2023-01-28T13:11:03.455Z,9.35
2023-01-28T13:13:39.235Z,8.50
2023-01-28T13:16:12.677Z,8.75
2023-01-28T13:18:49.931Z,8.82
2023-01-28T13:21:32.464Z,8.05
2023-01-28T13:24:23.815Z,8.50
2023-01-28T13:27:01.632Z,8.48
2023-01-28T13:29:36.379Z,9.40
2023-01-28T13:32:37.448Z,8.63
2023-01-28T13:35:10.749Z,8.10
2023-01-28T13:37:48.292Z,8.70
2023-01-28T13:40:19.405Z,9.20
2023-01-28T13:43:04.916Z,7.97
2023-01-28T13:45:36.532Z,8.93
2023-01-28T13:48:16.931Z,8.45
2023-01-28T13:50:48.302Z,8.73
2023-01-28T13:53:44.468Z,7.95
2023-01-28T13:56:25.183Z,8.52
2023-01-28T13:59:11.527Z,8.38
2023-01-28T14:01:55.542Z,8.20
2023-01-28T14:04:46.831Z,8.32
2023-01-28T14:07:50.702Z,8.02
2023-01-28T14:10:37.491Z,7.95
2023-01-28T14:16:06.520Z,8.43
2023-01-28T14:18:48.231Z,8.55
2023-01-28T14:21:27.145Z,8.05
2023-01-28T14:24:01.545Z,8.20
2023-01-28T14:26:44.852Z,7.22
2023-01-28T14:29:42.656Z,7.07
2023-01-28T14:32:29.199Z,7.57
2023-01-28T14:37:36.242Z,8.05
2023-01-28T14:40:10.763Z,7.93
2023-01-28T14:42:45.127Z,7.60
2023-01-28T14:45:34.884Z,7.20
2023-01-28T14:48:39.966Z,8.68
2023-01-28T14:51:37.828Z,7.70
2023-01-28T14:54:12.044Z,7.82
2023-01-28T14:57:02.830Z,8.07
2023-01-28T14:59:39.820Z,8.25
2023-01-28T15:02:23.970Z,8.13
2023-01-28T15:04:55.774Z,8.32
2023-01-28T15:07:32.352Z,7.65
2023-01-28T15:10:07.543Z,9.10
2023-01-28T15:12:42.417Z,7.80
2023-01-28T15:15:27.020Z,8.77
2023-01-28T15:18:00.493Z,8.25
2023-01-28T15:20:30.939Z,8.50
2023-01-28T15:23:03.620Z,8.60
2023-01-28T15:25:33.943Z,9.10
2023-01-28T15:28:05.290Z,8.77
2023-01-28T15:30:36.108Z,9.20
2023-01-28T15:33:20.272Z,9.43
2023-01-28T15:35:52.395Z,10.23
2023-01-28T15:38:31.268Z,9.32
2023-01-28T15:41:05.033Z,9.98
2023-01-28T15:43:38.672Z,10.60
2023-01-28T15:46:17.728Z,10.52
2023-01-28T15:48:56.369Z,10.25
2023-01-28T15:51:35.746Z,9.95
2023-01-28T15:54:12.200Z,11.55
2023-01-28T15:59:13.164Z,11.85
2023-01-28T16:01:43.604Z,11.73
2023-01-28T16:04:30.526Z,13.48
2023-01-28T16:07:07.235Z,12.20
2023-01-28T16:09:39.243Z,13.32
2023-01-28T16:12:13.705Z,14.15
2023-01-28T16:15:05.809Z,12.80
2023-01-28T16:17:44.618Z,12.70
2023-01-28T16:20:33.019Z,12.60
2023-01-28T16:23:06.560Z,13.27
2023-01-28T16:25:44.501Z,13.18
2023-01-28T16:28:23.306Z,12.82
2023-01-28T16:30:54.067Z,13.13
2023-01-28T16:33:25.508Z,13.27
2023-01-28T16:36:07.825Z,12.70
2023-01-28T16:38:38.973Z,12.88
2023-01-28T16:41:17.023Z,12.55
2023-01-28T16:43:47.290Z,14.32
2023-01-28T16:46:17.879Z,13.48
2023-01-28T16:48:48.344Z,13.55
2023-01-28T16:51:23.268Z,12.98
2023-01-28T16:53:55.304Z,13.50
2023-01-28T16:56:44.362Z,12.55
2023-01-28T16:59:17.399Z,12.38
2023-01-28T17:01:48.699Z,12.18
2023-01-28T17:04:19.208Z,13.30
2023-01-28T17:06:49.828Z,13.00
2023-01-28T17:09:20.257Z,13.13
2023-01-28T17:11:50.534Z,13.23
2023-01-28T17:14:21.128Z,12.43
2023-01-28T17:16:51.482Z,13.60
2023-01-28T17:19:21.950Z,12.80
2023-01-28T17:21:52.164Z,12.57
2023-01-28T17:24:22.769Z,13.55
2023-01-28T17:26:56.801Z,12.98
2023-01-28T17:29:28.858Z,12.88
2023-01-28T17:31:59.306Z,13.80
2023-01-28T17:34:29.703Z,12.95
2023-01-28T17:37:00.095Z,11.57
2023-01-28T17:39:30.403Z,14.75
2023-01-28T17:42:00.639Z,12.80
2023-01-28T17:44:31.331Z,13.52
2023-01-28T17:47:02.110Z,11.95
2023-01-28T17:49:32.455Z,13.40
2023-01-28T17:52:02.810Z,13.23
2023-01-28T17:54:33.277Z,13.15
2023-01-28T17:57:03.574Z,13.45
2023-01-28T17:59:33.935Z,13.13
2023-01-28T18:02:04.513Z,12.68
2023-01-28T18:04:39.696Z,12.65
2023-01-28T18:07:12.779Z,13.50
2023-01-28T18:09:45.118Z,13.25
2023-01-28T18:12:18.588Z,13.45
2023-01-28T18:14:51.377Z,13.13
2023-01-28T18:17:23.604Z,13.55
2023-01-28T18:19:54.086Z,13.57
2023-01-28T18:22:24.976Z,13.10
2023-01-28T18:24:56.734Z,14.00
2023-01-28T18:27:27.447Z,13.85
2023-01-28T18:29:59.226Z,14.18
2023-01-28T18:32:29.978Z,14.80
2023-01-28T18:35:00.701Z,13.68
2023-01-28T18:37:32.831Z,14.52
2023-01-28T18:40:03.592Z,14.23
2023-01-28T18:42:40.567Z,13.80
2023-01-28T18:45:11.278Z,13.27
2023-01-28T18:47:42.299Z,13.23
2023-01-28T18:50:12.898Z,14.43
2023-01-28T18:52:43.593Z,12.98
2023-01-28T18:55:15.138Z,13.52
2023-01-28T18:57:46.798Z,13.60
2023-01-28T19:00:17.565Z,13.73
2023-01-28T19:02:47.824Z,13.05
2023-01-28T19:05:18.907Z,14.70
2023-01-28T19:07:49.113Z,12.98
2023-01-28T19:10:21.220Z,12.63
2023-01-28T19:12:52.139Z,13.27
2023-01-28T19:15:22.727Z,13.23
2023-01-28T19:17:53.611Z,11.48
2023-01-28T19:20:24.612Z,12.88
2023-01-28T19:22:55.687Z,13.50
2023-01-28T19:25:25.968Z,12.73
2023-01-28T19:27:59.229Z,13.13
2023-01-28T19:30:29.511Z,12.38
2023-01-28T19:33:01.478Z,11.10
2023-01-28T19:35:31.772Z,13.07
2023-01-28T19:38:02.516Z,11.20
2023-01-28T19:40:33.766Z,10.55
2023-01-28T19:43:05.483Z,10.65
2023-01-28T19:45:36.171Z,11.20
2023-01-28T19:48:07.779Z,10.90
2023-01-28T19:50:40.185Z,10.45
2023-01-28T19:53:10.875Z,9.80
2023-01-28T19:55:41.793Z,11.18
2023-01-28T19:58:13.621Z,11.95
2023-01-28T20:00:45.490Z,11.63
2023-01-28T20:03:16.414Z,12.18
2023-01-28T20:05:46.674Z,11.43
2023-01-28T20:08:24.149Z,12.68
2023-01-28T20:10:54.579Z,11.77
2023-01-28T20:13:24.771Z,12.52
2023-01-28T20:15:55.494Z,13.82
2023-01-28T20:18:29.667Z,11.80
2023-01-28T20:21:00.515Z,12.07
2023-01-28T20:23:31.284Z,13.27
2023-01-28T20:26:05.231Z,13.05
2023-01-28T20:28:35.981Z,13.43
2023-01-28T20:31:12.880Z,12.55
2023-01-28T20:33:43.434Z,12.10
2023-01-28T20:36:16.203Z,12.15
2023-01-28T20:38:48.896Z,12.00
2023-01-28T20:41:21.969Z,12.55
2023-01-28T20:43:53.782Z,10.73
2023-01-28T20:46:28.389Z,10.95
2023-01-28T20:49:01.078Z,11.43
2023-01-28T20:51:35.613Z,10.27
2023-01-28T20:54:07.141Z,10.32
2023-01-28T20:56:37.373Z,11.05
2023-01-28T20:59:09.198Z,9.98
2023-01-28T21:01:40.094Z,10.00
2023-01-28T21:04:11.516Z,10.23
2023-01-28T21:06:42.137Z,10.82
2023-01-28T21:09:12.511Z,11.52
2023-01-28T21:11:42.771Z,10.57
2023-01-28T21:14:18.397Z,10.15
2023-01-28T21:16:48.951Z,10.27
2023-01-28T21:19:19.482Z,8.60
2023-01-28T21:21:49.784Z,7.50
2023-01-28T21:24:20.972Z,7.28
2023-01-28T21:26:51.227Z,5.85
2023-01-28T21:29:21.623Z,6.70
2023-01-28T21:31:52.194Z,7.35
2023-01-28T21:34:22.535Z,7.75
2023-01-28T21:36:56.583Z,7.05
2023-01-28T21:39:26.870Z,7.20
2023-01-28T21:41:57.367Z,7.47
2023-01-28T21:44:27.695Z,7.60
2023-01-28T21:46:58.195Z,7.43
2023-01-28T21:49:28.549Z,8.10
2023-01-28T21:51:58.907Z,7.32
2023-01-28T21:54:29.351Z,8.32
2023-01-28T21:57:00.319Z,9.90
2023-01-28T21:59:35.216Z,10.27
2023-01-28T22:02:07.311Z,11.15
2023-01-28T22:04:42.438Z,10.82
2023-01-28T22:07:15.305Z,11.68
2023-01-28T22:09:45.976Z,11.55
2023-01-28T22:12:17.929Z,11.82
2023-01-28T22:14:48.563Z,12.27
2023-01-28T22:17:20.998Z,12.15
2023-01-28T22:19:51.526Z,13.15
2023-01-28T22:22:21.981Z,12.70
2023-01-28T22:24:52.640Z,14.48
2023-01-28T22:27:23.120Z,13.93
2023-01-28T22:29:55.411Z,12.00
2023-01-28T22:32:26.154Z,13.23
2023-01-28T22:34:56.870Z,13.80
2023-01-28T22:37:27.193Z,11.77
2023-01-28T22:39:57.438Z,10.40
2023-01-28T22:42:27.983Z,10.32
2023-01-28T22:44:58.306Z,10.98
2023-01-28T22:47:28.651Z,11.23
2023-01-28T22:49:58.946Z,10.95
2023-01-28T22:52:29.491Z,12.75
2023-01-28T22:54:59.815Z,12.63
2023-01-28T22:57:30.397Z,12.38
2023-01-28T23:00:00.918Z,12.85
2023-01-28T23:02:31.613Z,10.27
2023-01-28T23:05:01.899Z,10.60
2023-01-28T23:07:32.175Z,11.38
2023-01-28T23:10:03.545Z,11.38
2023-01-28T23:12:33.872Z,9.05
2023-01-28T23:15:22.866Z,10.77
2023-01-28T23:18:11.060Z,8.38
2023-01-28T23:21:01.064Z,7.85
2023-01-28T23:23:49.214Z,7.97
2023-01-28T23:26:19.491Z,7.35
2023-01-28T23:28:49.737Z,8.15
2023-01-28T23:31:20.208Z,8.20
2023-01-28T23:33:51.037Z,9.02
2023-01-28T23:36:21.642Z,9.00
2023-01-28T23:38:51.959Z,8.57
2023-01-28T23:41:22.155Z,8.68
2023-01-28T23:43:52.408Z,9.30
2023-01-28T23:46:37.855Z,8.02
2023-01-28T23:49:11.411Z,8.38
2023-01-28T23:51:41.710Z,8.63
2023-01-28T23:54:11.979Z,8.35
2023-01-28T23:56:42.272Z,7.70
2023-01-28T23:59:12.633Z,7.85
